CheckWX is a tool to help pilots better visualize weather data.  It is not intended as a substitute for an official pre-flight weather briefing.

00:20:42 UTC

KRDD TAF
Redding Municipal Airport
Redding, California, USA
KRDD 182339Z 1900/1924 17006KT P6SM SCT100 FM190700 VRB03KT P6SM -SHRA OVC050 FM191800 19006KT P6SM SCT050 OVC250

Oct-19@
00:00 UTC

Oct-19 @ 00:00 UTC

Oct-19@
07:00 UTC

Oct-19 @ 07:00 UTC

KRDD 182339Z 1900/1924 17006KT P6SM SCT100
Wind
  • 170° at 6 KTS
Cloud Levels
  • Scattered at 10,000' AGL

Oct-19@
07:00 UTC

Oct-19 @ 07:00 UTC

Oct-19@
18:00 UTC

Oct-19 @ 18:00 UTC

FM190700 VRB03KT P6SM -SHRA OVC050

From

From Standard forecast or significant change

Wind
  • Variable at 3 KTS
Conditions
Light Rain
Cloud Levels
  • Overcast at 5,000' AGL

Oct-19@
18:00 UTC

Oct-19 @ 18:00 UTC

Oct-20@
00:00 UTC

Oct-20 @ 00:00 UTC

FM191800 19006KT P6SM SCT050 OVC250

From

From Standard forecast or significant change

Wind
  • 190° at 6 KTS
Cloud Levels
  • Scattered at 5,000' AGL
  • Overcast at 25,000' AGL